createdAt,value
2023-03-29T00:01:45.681Z,0.82
2023-03-29T00:04:13.957Z,1.45
2023-03-29T00:06:42.097Z,1.17
2023-03-29T00:09:10.052Z,1.20
2023-03-29T00:11:36.695Z,1.52
2023-03-29T00:14:03.590Z,0.98
2023-03-29T00:16:30.200Z,1.10
2023-03-29T00:18:56.895Z,0.77
2023-03-29T00:21:23.322Z,1.13
2023-03-29T00:23:49.870Z,0.93
2023-03-29T00:26:16.406Z,0.93
2023-03-29T00:28:42.930Z,2.03
2023-03-29T00:31:14.774Z,1.08
2023-03-29T00:33:42.457Z,1.00
2023-03-29T00:36:10.932Z,1.05
2023-03-29T00:38:37.631Z,1.10
2023-03-29T00:41:06.462Z,0.80
2023-03-29T00:43:55.521Z,0.98
2023-03-29T00:46:23.158Z,1.33
2023-03-29T00:48:53.365Z,1.00
2023-03-29T00:51:22.203Z,0.75
2023-03-29T00:53:58.495Z,1.02
2023-03-29T00:56:30.486Z,1.30
2023-03-29T00:59:02.183Z,0.73
2023-03-29T01:01:54.288Z,0.70
2023-03-29T01:04:29.500Z,0.73
2023-03-29T01:07:02.906Z,1.17
2023-03-29T01:09:31.093Z,0.80
2023-03-29T01:12:01.589Z,0.95
2023-03-29T01:14:42.887Z,1.45
2023-03-29T01:17:09.419Z,1.85
2023-03-29T01:19:45.588Z,0.80
2023-03-29T01:22:28.311Z,1.13
2023-03-29T01:25:13.300Z,0.80
2023-03-29T01:27:50.221Z,1.10
2023-03-29T01:30:27.028Z,0.95
2023-03-29T01:33:08.587Z,0.95
2023-03-29T01:35:45.844Z,1.05
2023-03-29T01:38:38.187Z,1.00
2023-03-29T01:41:05.198Z,0.95
2023-03-29T01:43:45.225Z,0.82
2023-03-29T01:46:19.088Z,1.10
2023-03-29T01:48:54.811Z,1.10
2023-03-29T01:51:26.733Z,1.05
2023-03-29T01:54:02.683Z,1.30
2023-03-29T01:56:34.067Z,0.80
2023-03-29T01:59:09.452Z,1.95
2023-03-29T02:01:49.286Z,0.90
2023-03-29T02:04:22.785Z,1.02
2023-03-29T02:06:55.041Z,1.10
2023-03-29T02:09:23.340Z,0.80
2023-03-29T02:11:52.508Z,1.20
2023-03-29T02:14:19.434Z,0.90
2023-03-29T02:16:46.395Z,0.82
2023-03-29T02:19:13.810Z,0.80
2023-03-29T02:21:44.122Z,1.48
2023-03-29T02:24:15.259Z,1.13
2023-03-29T02:26:41.980Z,1.08
2023-03-29T02:29:08.900Z,1.05
2023-03-29T02:31:42.999Z,1.25
2023-03-29T02:34:24.446Z,1.35
2023-03-29T02:36:55.542Z,1.27
2023-03-29T02:39:24.603Z,1.55
2023-03-29T02:41:53.479Z,0.80
2023-03-29T02:44:27.290Z,1.80
2023-03-29T02:46:58.086Z,1.00
2023-03-29T02:49:24.942Z,1.27
2023-03-29T02:51:56.048Z,0.80
2023-03-29T02:54:29.898Z,0.90
2023-03-29T02:56:58.998Z,0.90
2023-03-29T02:59:25.956Z,1.48
2023-03-29T03:01:53.590Z,1.00
2023-03-29T03:04:22.973Z,1.88
2023-03-29T03:06:49.793Z,1.27
2023-03-29T03:09:16.322Z,0.88
2023-03-29T03:11:43.119Z,1.00
2023-03-29T03:14:09.965Z,1.33
2023-03-29T03:16:37.074Z,1.13
2023-03-29T03:19:03.899Z,1.13
2023-03-29T03:21:30.412Z,1.00
2023-03-29T03:23:56.984Z,1.15
2023-03-29T03:26:24.935Z,1.90
2023-03-29T03:28:51.556Z,1.75
2023-03-29T03:31:19.628Z,1.10
2023-03-29T03:33:46.205Z,1.27
2023-03-29T03:36:14.016Z,1.27
2023-03-29T03:38:41.264Z,0.82
2023-03-29T03:41:08.092Z,1.65
2023-03-29T03:43:34.977Z,0.70
2023-03-29T03:46:02.179Z,2.45
2023-03-29T03:48:28.846Z,1.05
2023-03-29T03:50:58.150Z,1.40
2023-03-29T03:53:26.284Z,0.77
2023-03-29T03:55:55.916Z,1.30
2023-03-29T03:58:23.037Z,2.20
2023-03-29T04:00:50.714Z,0.85
2023-03-29T04:03:17.896Z,1.52
2023-03-29T04:05:46.816Z,0.90
2023-03-29T04:08:14.870Z,1.05
2023-03-29T04:10:42.029Z,1.05
2023-03-29T04:13:08.567Z,1.10
2023-03-29T04:15:38.836Z,1.10
2023-03-29T04:18:07.389Z,1.75
2023-03-29T04:20:34.644Z,1.67
2023-03-29T04:23:01.736Z,1.23
2023-03-29T04:25:28.449Z,1.23
2023-03-29T04:27:55.010Z,1.00
2023-03-29T04:30:21.848Z,0.80
2023-03-29T04:32:48.820Z,0.80
2023-03-29T04:35:15.379Z,1.00
2023-03-29T04:37:41.963Z,1.33
2023-03-29T04:40:10.022Z,1.10
2023-03-29T04:42:37.684Z,1.58
2023-03-29T04:45:07.186Z,1.05
2023-03-29T04:47:36.649Z,1.02
2023-03-29T04:50:03.831Z,1.60
2023-03-29T04:52:33.137Z,1.15
2023-03-29T04:55:01.482Z,0.77
2023-03-29T04:57:29.173Z,0.80
2023-03-29T04:59:56.442Z,1.10
2023-03-29T05:02:23.370Z,1.67
2023-03-29T05:04:50.563Z,1.50
2023-03-29T05:07:18.168Z,1.08
2023-03-29T05:09:44.916Z,1.75
2023-03-29T05:12:11.905Z,2.22
2023-03-29T05:14:38.487Z,0.80
2023-03-29T05:17:05.271Z,1.20
2023-03-29T05:19:32.203Z,1.23
2023-03-29T05:21:59.114Z,1.10
2023-03-29T05:24:25.770Z,1.13
2023-03-29T05:26:52.528Z,1.25
2023-03-29T05:29:19.290Z,1.38
2023-03-29T05:31:47.050Z,1.45
2023-03-29T05:34:13.697Z,1.05
2023-03-29T05:36:40.383Z,1.10
2023-03-29T05:39:07.360Z,1.23
2023-03-29T05:41:34.866Z,1.02
2023-03-29T05:44:01.587Z,1.08
2023-03-29T05:46:28.334Z,1.63
2023-03-29T05:48:54.880Z,1.20
2023-03-29T05:51:24.448Z,1.08
2023-03-29T05:53:52.088Z,1.37
2023-03-29T05:56:19.075Z,1.10
2023-03-29T05:58:49.363Z,1.02
2023-03-29T06:01:17.827Z,1.50
2023-03-29T06:03:46.156Z,1.55
2023-03-29T06:06:16.484Z,1.42
2023-03-29T06:08:44.130Z,1.10
2023-03-29T06:11:13.352Z,1.75
2023-03-29T06:13:42.206Z,1.30
2023-03-29T06:16:10.953Z,1.67
2023-03-29T06:18:41.437Z,1.15
2023-03-29T06:21:09.385Z,1.52
2023-03-29T06:23:36.658Z,1.70
2023-03-29T06:26:04.371Z,1.85
2023-03-29T06:28:31.832Z,1.50
2023-03-29T06:31:02.944Z,1.20
2023-03-29T06:33:32.353Z,3.00
2023-03-29T06:35:58.975Z,1.88
2023-03-29T06:38:28.429Z,2.25
2023-03-29T06:41:02.693Z,1.60
2023-03-29T06:43:29.584Z,14.10
2023-03-29T06:45:56.151Z,24.50
2023-03-29T06:48:23.060Z,24.95
2023-03-29T06:50:49.791Z,20.23
2023-03-29T06:53:17.049Z,17.98
2023-03-29T06:55:43.805Z,20.95
2023-03-29T06:58:11.110Z,18.88
2023-03-29T07:00:39.235Z,17.05
2023-03-29T07:03:09.824Z,11.88
2023-03-29T07:05:40.750Z,14.73
2023-03-29T07:11:51.421Z,10.65
2023-03-29T07:14:18.009Z,7.72
2023-03-29T07:16:48.711Z,11.32
2023-03-29T07:19:15.405Z,9.43
2023-03-29T07:21:41.922Z,8.73
2023-03-29T07:24:10.235Z,9.93
2023-03-29T07:26:36.714Z,7.10
2023-03-29T07:29:03.220Z,10.00
2023-03-29T07:31:29.763Z,7.50
2023-03-29T07:33:56.547Z,6.22
2023-03-29T07:36:24.173Z,6.30
2023-03-29T07:38:50.626Z,9.02
2023-03-29T07:41:17.333Z,5.85
2023-03-29T07:43:43.817Z,7.03
2023-03-29T07:46:11.272Z,5.07
2023-03-29T07:48:38.430Z,5.45
2023-03-29T07:51:06.327Z,4.20
2023-03-29T07:53:33.241Z,4.43
2023-03-29T07:56:00.283Z,5.10
2023-03-29T07:58:26.781Z,5.07
2023-03-29T08:00:53.440Z,3.53
2023-03-29T08:03:20.163Z,3.95
2023-03-29T08:05:47.419Z,4.57
2023-03-29T08:08:14.290Z,2.83
2023-03-29T08:10:42.518Z,3.67
2023-03-29T08:13:10.178Z,4.38
2023-03-29T08:15:42.116Z,2.50
2023-03-29T08:18:11.059Z,3.15
2023-03-29T08:20:37.708Z,4.32
2023-03-29T08:23:04.246Z,3.35
2023-03-29T08:25:30.790Z,3.20
2023-03-29T08:27:57.456Z,3.53
2023-03-29T08:30:24.053Z,2.30
2023-03-29T08:32:53.589Z,2.35
2023-03-29T08:35:21.702Z,2.63
2023-03-29T08:37:48.183Z,2.20
2023-03-29T08:40:26.356Z,3.50
2023-03-29T08:43:09.803Z,5.35
2023-03-29T08:45:57.112Z,3.17
2023-03-29T08:48:29.999Z,3.28
2023-03-29T08:51:02.276Z,3.58
2023-03-29T08:53:31.346Z,4.55
2023-03-29T08:56:00.369Z,4.30
2023-03-29T08:58:31.748Z,5.65
2023-03-29T09:01:00.473Z,14.38
2023-03-29T09:03:34.424Z,14.05
2023-03-29T09:06:10.805Z,12.65
2023-03-29T09:08:43.935Z,8.50
2023-03-29T09:11:31.693Z,8.98
2023-03-29T09:14:07.507Z,8.90
2023-03-29T09:17:17.028Z,7.57
2023-03-29T09:19:57.317Z,8.75
2023-03-29T09:22:35.941Z,6.97
2023-03-29T09:25:53.573Z,7.80
2023-03-29T09:28:31.898Z,3.50
2023-03-29T09:31:14.482Z,7.00
2023-03-29T09:33:46.628Z,5.25
2023-03-29T09:36:23.726Z,6.97
2023-03-29T09:38:54.583Z,4.22
2023-03-29T09:41:35.745Z,2.97
2023-03-29T09:44:24.141Z,3.75
2023-03-29T09:47:02.129Z,4.53
2023-03-29T09:49:42.268Z,4.03
2023-03-29T09:52:15.347Z,4.35
2023-03-29T09:54:42.117Z,3.03
2023-03-29T09:57:15.696Z,3.10
2023-03-29T09:59:43.318Z,2.92
2023-03-29T10:02:13.082Z,2.92
2023-03-29T10:04:42.510Z,2.10
2023-03-29T10:07:20.803Z,3.00
2023-03-29T10:09:52.028Z,3.15
2023-03-29T10:12:19.965Z,2.90
2023-03-29T10:14:53.494Z,1.80
2023-03-29T10:17:21.851Z,2.55
2023-03-29T10:19:55.772Z,3.08
2023-03-29T10:22:33.267Z,2.13
2023-03-29T10:24:59.849Z,3.40
2023-03-29T10:27:29.185Z,2.70
2023-03-29T10:29:58.474Z,2.40
2023-03-29T10:32:34.688Z,2.20
2023-03-29T10:35:22.618Z,3.00
2023-03-29T10:37:51.978Z,2.63
2023-03-29T10:40:31.876Z,3.20
2023-03-29T10:43:13.198Z,3.00
2023-03-29T10:45:40.993Z,2.47
2023-03-29T10:48:12.931Z,1.90
2023-03-29T10:50:39.676Z,2.92
2023-03-29T10:53:38.030Z,3.80
2023-03-29T10:56:23.038Z,2.30
2023-03-29T10:58:55.803Z,2.80
2023-03-29T11:01:43.462Z,2.38
2023-03-29T11:04:23.181Z,2.50
2023-03-29T11:07:14.632Z,2.97
2023-03-29T11:10:05.710Z,3.25
2023-03-29T11:12:45.467Z,2.75
2023-03-29T11:15:41.610Z,1.93
2023-03-29T11:18:17.226Z,2.80
2023-03-29T11:20:54.221Z,2.30
2023-03-29T11:23:20.679Z,2.33
2023-03-29T11:25:59.408Z,2.83
2023-03-29T11:28:28.744Z,4.95
2023-03-29T11:31:30.212Z,2.40
2023-03-29T11:34:12.763Z,2.90
2023-03-29T11:36:59.734Z,2.60
2023-03-29T11:39:55.674Z,2.47
2023-03-29T11:42:28.692Z,2.25
2023-03-29T11:44:57.599Z,2.90
2023-03-29T11:47:37.301Z,2.80
2023-03-29T11:50:14.608Z,2.63
2023-03-29T11:52:47.196Z,2.60
2023-03-29T11:55:26.197Z,2.38
2023-03-29T11:58:03.907Z,2.67
2023-03-29T12:00:37.503Z,2.72
2023-03-29T12:03:19.323Z,2.35
2023-03-29T12:05:55.673Z,2.33
2023-03-29T12:08:33.363Z,3.60
2023-03-29T12:11:09.859Z,2.35
2023-03-29T12:13:43.020Z,3.10
2023-03-29T12:16:24.858Z,3.00
2023-03-29T12:18:56.097Z,2.35
2023-03-29T12:21:24.970Z,2.08
2023-03-29T12:23:53.016Z,3.17
2023-03-29T12:26:25.457Z,3.63
2023-03-29T12:29:07.370Z,3.28
2023-03-29T12:31:33.982Z,2.85
2023-03-29T12:34:10.280Z,2.60
2023-03-29T12:37:02.110Z,3.03
2023-03-29T12:39:31.033Z,2.05
2023-03-29T12:42:12.620Z,2.63
2023-03-29T12:44:50.524Z,2.65
2023-03-29T12:47:23.465Z,2.45
2023-03-29T12:49:56.190Z,2.08
2023-03-29T12:52:31.442Z,2.45
2023-03-29T12:55:01.347Z,2.20
2023-03-29T12:57:57.226Z,2.83
2023-03-29T13:00:32.802Z,2.15
2023-03-29T13:03:19.654Z,1.98
2023-03-29T13:05:46.996Z,2.50
2023-03-29T13:08:26.418Z,2.72
2023-03-29T13:10:55.945Z,2.08
2023-03-29T13:13:33.185Z,1.90
2023-03-29T13:16:13.752Z,2.75
2023-03-29T13:21:40.601Z,2.22
2023-03-29T13:25:01.776Z,2.95
2023-03-29T13:27:34.272Z,2.10
2023-03-29T13:30:16.721Z,2.45
2023-03-29T13:32:49.190Z,3.25
2023-03-29T13:35:22.593Z,2.00
2023-03-29T13:38:01.273Z,2.08
2023-03-29T13:40:30.528Z,2.10
2023-03-29T13:43:20.561Z,2.22
2023-03-29T13:45:56.476Z,2.28
2023-03-29T13:48:35.320Z,2.65
2023-03-29T13:51:08.580Z,2.40
2023-03-29T13:53:40.219Z,2.38
2023-03-29T13:56:14.417Z,1.95
2023-03-29T13:58:43.851Z,2.53
2023-03-29T14:01:36.786Z,1.98
2023-03-29T14:04:05.905Z,2.20
2023-03-29T14:06:36.698Z,2.55
2023-03-29T14:09:08.723Z,2.58
2023-03-29T14:11:36.676Z,2.58
2023-03-29T14:14:10.771Z,2.22
2023-03-29T14:16:40.768Z,3.22
2023-03-29T14:19:15.361Z,2.22
2023-03-29T14:21:42.705Z,2.58
2023-03-29T14:24:12.880Z,3.05
2023-03-29T14:26:44.198Z,3.65
2023-03-29T14:29:11.952Z,2.00
2023-03-29T14:31:41.737Z,1.85
2023-03-29T14:34:18.653Z,1.70
2023-03-29T14:36:48.887Z,3.00
2023-03-29T14:41:55.405Z,1.80
2023-03-29T14:44:25.167Z,2.33
2023-03-29T14:46:52.006Z,1.90
2023-03-29T14:49:20.936Z,2.72
2023-03-29T14:51:49.236Z,3.58
2023-03-29T14:54:32.694Z,2.13
2023-03-29T14:56:59.986Z,2.10
2023-03-29T14:59:38.186Z,1.98
2023-03-29T15:02:21.827Z,3.67
2023-03-29T15:04:56.061Z,2.55
2023-03-29T15:07:25.195Z,2.15
2023-03-29T15:09:52.036Z,1.80
2023-03-29T15:12:19.236Z,2.30
2023-03-29T15:14:46.095Z,1.88
2023-03-29T15:17:36.009Z,1.77
2023-03-29T15:20:21.572Z,2.00
2023-03-29T15:22:58.884Z,1.55
2023-03-29T15:25:36.621Z,2.00
2023-03-29T15:28:03.805Z,2.45
2023-03-29T15:30:46.198Z,1.80
2023-03-29T15:33:21.418Z,1.58
2023-03-29T15:35:51.541Z,1.30
2023-03-29T15:38:19.800Z,1.83
2023-03-29T15:40:48.563Z,2.83
2023-03-29T15:43:15.184Z,2.08
2023-03-29T15:45:41.770Z,1.65
2023-03-29T15:48:20.042Z,1.65
2023-03-29T15:50:46.792Z,1.40
2023-03-29T15:53:15.712Z,2.22
2023-03-29T15:55:45.768Z,1.70
2023-03-29T15:58:15.540Z,1.52
2023-03-29T16:00:44.383Z,2.25
2023-03-29T16:03:15.211Z,2.15
2023-03-29T16:05:43.480Z,1.20
2023-03-29T16:08:11.283Z,1.35
2023-03-29T16:10:38.780Z,2.10
2023-03-29T16:13:05.917Z,2.22
2023-03-29T16:15:33.813Z,1.52
2023-03-29T16:18:00.509Z,1.45
2023-03-29T16:20:27.380Z,1.92
2023-03-29T16:22:54.244Z,1.38
2023-03-29T16:25:24.298Z,1.75
2023-03-29T16:27:52.615Z,1.38
2023-03-29T16:30:19.976Z,1.40
2023-03-29T16:32:47.055Z,1.15
2023-03-29T16:35:21.749Z,1.73
2023-03-29T16:37:48.727Z,1.25
2023-03-29T16:40:16.297Z,1.92
2023-03-29T16:42:42.863Z,1.50
2023-03-29T16:45:13.731Z,1.48
2023-03-29T16:47:43.660Z,1.27
2023-03-29T16:50:18.914Z,2.15
2023-03-29T16:52:48.240Z,3.22
2023-03-29T16:55:18.797Z,1.63
2023-03-29T16:57:47.175Z,1.52
2023-03-29T17:00:15.925Z,1.95
2023-03-29T17:02:49.704Z,2.13
2023-03-29T17:05:18.346Z,1.45
2023-03-29T17:07:45.297Z,1.77
2023-03-29T17:10:12.756Z,1.73
2023-03-29T17:12:39.816Z,1.15
2023-03-29T17:15:07.689Z,1.17
2023-03-29T17:17:34.712Z,1.38
2023-03-29T17:20:01.278Z,1.88
2023-03-29T17:22:27.912Z,1.20
2023-03-29T17:24:54.538Z,2.10
2023-03-29T17:27:21.203Z,1.10
2023-03-29T17:29:47.881Z,1.25
2023-03-29T17:32:14.607Z,1.90
2023-03-29T17:34:41.634Z,1.23
2023-03-29T17:37:09.322Z,1.42
2023-03-29T17:39:37.603Z,1.52
2023-03-29T17:42:05.010Z,1.42
2023-03-29T17:44:33.261Z,1.70
2023-03-29T17:47:00.965Z,1.48
2023-03-29T17:49:27.761Z,1.13
2023-03-29T17:51:54.331Z,1.33
2023-03-29T17:54:20.896Z,1.27
2023-03-29T17:56:47.552Z,1.13
2023-03-29T17:59:14.379Z,2.35
2023-03-29T18:01:41.704Z,1.50
2023-03-29T18:04:08.467Z,0.82
2023-03-29T18:06:35.318Z,2.03
2023-03-29T18:09:02.178Z,1.25
2023-03-29T18:11:29.076Z,1.35
2023-03-29T18:13:59.341Z,2.17
2023-03-29T18:16:26.133Z,1.00
2023-03-29T18:18:52.742Z,1.10
2023-03-29T18:21:19.837Z,2.05
2023-03-29T18:23:47.720Z,1.40
2023-03-29T18:26:16.454Z,1.40
2023-03-29T18:28:48.652Z,1.33
2023-03-29T18:31:15.992Z,1.20
2023-03-29T18:33:42.757Z,1.20
2023-03-29T18:36:12.938Z,1.60
2023-03-29T18:38:43.132Z,1.52
2023-03-29T18:41:12.142Z,1.85
2023-03-29T18:43:40.220Z,1.23
2023-03-29T18:46:08.152Z,1.60
2023-03-29T18:48:41.861Z,1.17
2023-03-29T18:51:10.550Z,1.13
2023-03-29T18:53:38.881Z,1.20
2023-03-29T18:56:06.540Z,1.67
2023-03-29T18:58:33.366Z,1.15
2023-03-29T19:01:02.859Z,1.10
2023-03-29T19:03:30.090Z,1.05
2023-03-29T19:05:56.971Z,1.20
2023-03-29T19:08:25.709Z,1.38
2023-03-29T19:10:53.548Z,1.60
2023-03-29T19:13:21.642Z,1.50
2023-03-29T19:15:48.200Z,1.10
2023-03-29T19:18:14.748Z,1.75
2023-03-29T19:20:41.289Z,1.60
2023-03-29T19:23:08.033Z,1.73
2023-03-29T19:25:35.258Z,1.35
2023-03-29T19:28:03.629Z,1.77
2023-03-29T19:30:31.174Z,1.50
2023-03-29T19:32:57.780Z,1.40
2023-03-29T19:35:24.412Z,1.73
2023-03-29T19:37:51.230Z,1.63
2023-03-29T19:40:18.247Z,1.20
2023-03-29T19:42:44.824Z,1.20
2023-03-29T19:45:11.500Z,1.60
2023-03-29T19:47:38.126Z,1.80
2023-03-29T19:50:05.207Z,1.27
2023-03-29T19:52:32.868Z,1.40
2023-03-29T19:54:59.405Z,1.27
2023-03-29T19:57:26.297Z,2.05
2023-03-29T19:59:55.532Z,2.13
2023-03-29T20:02:22.138Z,1.20
2023-03-29T20:04:49.629Z,1.75
2023-03-29T20:07:16.213Z,1.63
2023-03-29T20:09:45.199Z,1.70
2023-03-29T20:12:12.314Z,1.40
2023-03-29T20:14:40.293Z,1.10
2023-03-29T20:17:07.350Z,1.92
2023-03-29T20:19:36.556Z,1.27
2023-03-29T20:22:04.540Z,1.38
2023-03-29T20:24:32.580Z,1.52
2023-03-29T20:26:59.170Z,1.70
2023-03-29T20:29:25.618Z,3.63
2023-03-29T20:31:52.192Z,4.50
2023-03-29T20:34:18.930Z,1.85
2023-03-29T20:36:47.007Z,1.38
2023-03-29T20:39:17.656Z,1.58
2023-03-29T20:41:47.447Z,4.45
2023-03-29T20:44:16.919Z,2.60
2023-03-29T20:46:54.526Z,2.22
2023-03-29T20:49:26.547Z,2.42
2023-03-29T20:51:59.428Z,1.35
2023-03-29T20:54:26.508Z,1.65
2023-03-29T20:56:54.775Z,1.98
2023-03-29T20:59:22.744Z,2.33
2023-03-29T21:01:50.352Z,1.90
2023-03-29T21:04:18.195Z,1.30
2023-03-29T21:06:45.676Z,1.58
2023-03-29T21:09:13.692Z,1.50
2023-03-29T21:11:40.856Z,2.55
2023-03-29T21:14:09.238Z,2.15
2023-03-29T21:16:35.945Z,2.65
2023-03-29T21:19:02.439Z,2.05
2023-03-29T21:21:29.675Z,1.55
2023-03-29T21:23:56.275Z,1.95
2023-03-29T21:26:23.531Z,2.55
2023-03-29T21:28:50.385Z,1.35
2023-03-29T21:31:16.956Z,2.03
2023-03-29T21:33:43.601Z,2.38
2023-03-29T21:36:10.302Z,2.03
2023-03-29T21:38:36.824Z,2.08
2023-03-29T21:41:03.496Z,3.63
2023-03-29T21:43:30.285Z,2.90
2023-03-29T21:45:57.676Z,2.58
2023-03-29T21:48:24.263Z,1.52
2023-03-29T21:50:51.028Z,1.85
2023-03-29T21:53:18.292Z,2.05
2023-03-29T21:55:44.853Z,2.10
2023-03-29T21:58:11.439Z,1.50
2023-03-29T22:00:38.022Z,1.60
2023-03-29T22:03:04.671Z,1.77
2023-03-29T22:05:31.232Z,1.40
2023-03-29T22:07:58.741Z,2.28
2023-03-29T22:10:25.618Z,1.27
2023-03-29T22:12:52.598Z,1.80
2023-03-29T22:15:22.480Z,2.85
2023-03-29T22:17:49.094Z,1.50
2023-03-29T22:20:18.426Z,1.88
2023-03-29T22:22:49.917Z,1.48
2023-03-29T22:25:17.939Z,1.70
2023-03-29T22:27:46.749Z,1.30
2023-03-29T22:30:15.026Z,2.50
2023-03-29T22:32:42.363Z,1.50
2023-03-29T22:35:09.672Z,1.63
2023-03-29T22:37:43.672Z,2.05
2023-03-29T22:40:12.068Z,1.65
2023-03-29T22:42:38.896Z,1.52
2023-03-29T22:45:06.629Z,3.03
2023-03-29T22:47:34.137Z,1.67
2023-03-29T22:50:00.744Z,2.10
2023-03-29T22:52:27.282Z,1.73
2023-03-29T22:54:53.781Z,1.75
2023-03-29T22:57:20.584Z,2.72
2023-03-29T22:59:47.060Z,1.67
2023-03-29T23:02:13.557Z,1.77
2023-03-29T23:04:40.134Z,2.03
2023-03-29T23:07:06.637Z,1.92
2023-03-29T23:09:33.150Z,1.88
2023-03-29T23:12:01.094Z,2.53
2023-03-29T23:14:27.807Z,1.05
2023-03-29T23:16:54.407Z,1.50
2023-03-29T23:19:21.068Z,1.77
2023-03-29T23:21:47.675Z,2.65
2023-03-29T23:24:18.851Z,1.20
2023-03-29T23:26:45.869Z,1.52
2023-03-29T23:29:13.100Z,2.20
2023-03-29T23:31:39.672Z,2.05
2023-03-29T23:34:06.132Z,1.52
2023-03-29T23:36:32.689Z,1.90
2023-03-29T23:39:00.285Z,1.63
2023-03-29T23:41:30.716Z,1.90
2023-03-29T23:46:24.724Z,1.40
2023-03-29T23:48:51.750Z,2.75
2023-03-29T23:51:22.706Z,1.15
2023-03-29T23:53:49.980Z,1.70
2023-03-29T23:56:16.533Z,1.75
2023-03-29T23:58:43.059Z,1.67
